createdAt,value
2017-09-05T00:00:24.156Z,14.40
2017-09-05T00:02:51.665Z,14.40
2017-09-05T00:05:19.172Z,14.30
2017-09-05T00:07:47.157Z,14.30
2017-09-05T00:13:17.917Z,14.40
2017-09-05T00:15:46.334Z,14.40
2017-09-05T00:18:13.864Z,14.30
2017-09-05T00:23:46.032Z,14.40
2017-09-05T00:26:13.533Z,14.40
2017-09-05T00:28:41.053Z,14.50
2017-09-05T00:31:08.544Z,14.40
2017-09-05T00:33:36.064Z,14.50
2017-09-05T00:36:03.561Z,14.50
2017-09-05T00:38:31.077Z,14.50
2017-09-05T00:40:58.581Z,14.50
2017-09-05T00:43:26.105Z,14.50
2017-09-05T00:45:53.606Z,14.50
2017-09-05T00:48:21.117Z,14.40
2017-09-05T00:50:48.624Z,14.40
2017-09-05T00:53:16.185Z,14.40
2017-09-05T00:55:43.699Z,14.30
2017-09-05T00:58:11.197Z,14.20
2017-09-05T01:00:38.720Z,14.20
2017-09-05T01:03:06.218Z,14.30
2017-09-05T01:05:33.744Z,14.30
2017-09-05T01:08:01.250Z,14.30
2017-09-05T01:10:28.764Z,14.40
2017-09-05T01:12:56.276Z,14.40
2017-09-05T01:15:23.815Z,14.30
2017-09-05T01:17:51.340Z,14.20
2017-09-05T01:20:18.862Z,14.20
2017-09-05T01:22:46.348Z,14.20
2017-09-05T01:25:13.856Z,14.20
2017-09-05T01:27:41.348Z,14.20
2017-09-05T01:30:08.869Z,14.20
2017-09-05T01:32:36.352Z,14.10
2017-09-05T01:35:03.863Z,14.10
2017-09-05T01:37:31.372Z,14.10
2017-09-05T01:39:58.891Z,14.10
2017-09-05T01:42:26.388Z,14.10
2017-09-05T01:44:53.896Z,14.20
2017-09-05T01:47:21.429Z,14.20
2017-09-05T01:49:48.936Z,14.10
2017-09-05T01:52:16.452Z,14.10
2017-09-05T01:54:43.944Z,14.10
2017-09-05T01:57:11.455Z,14.00
2017-09-05T01:59:38.960Z,14.00
2017-09-05T02:02:06.480Z,14.00
2017-09-05T02:04:33.986Z,14.00
2017-09-05T02:07:01.505Z,14.00
2017-09-05T02:09:29.014Z,14.10
2017-09-05T02:11:56.554Z,14.10
2017-09-05T02:14:24.048Z,14.10
2017-09-05T02:16:51.585Z,14.10
2017-09-05T02:19:19.080Z,14.10
2017-09-05T02:21:46.601Z,14.10
2017-09-05T02:24:14.095Z,14.10
2017-09-05T02:26:41.620Z,14.00
2017-09-05T02:29:09.132Z,14.00
2017-09-05T02:31:36.647Z,14.00
2017-09-05T02:34:04.149Z,14.00
2017-09-05T02:36:31.681Z,13.90
2017-09-05T02:38:59.183Z,13.90
2017-09-05T02:41:26.685Z,13.90
2017-09-05T02:43:54.205Z,14.00
2017-09-05T02:46:21.719Z,13.90
2017-09-05T02:48:49.248Z,13.90
2017-09-05T02:51:16.748Z,13.90
2017-09-05T02:53:44.302Z,13.80
2017-09-05T02:56:11.805Z,13.90
2017-09-05T02:58:39.338Z,13.90
2017-09-05T03:01:06.832Z,13.70
2017-09-05T03:03:34.346Z,13.70
2017-09-05T03:06:01.859Z,13.70
2017-09-05T03:08:29.376Z,13.80
2017-09-05T03:10:56.892Z,13.90
2017-09-05T03:13:24.412Z,13.80
2017-09-05T03:15:51.900Z,13.80
2017-09-05T03:18:19.429Z,13.80
2017-09-05T03:20:46.924Z,13.90
2017-09-05T03:23:14.444Z,13.90
2017-09-05T03:25:41.943Z,13.90
2017-09-05T03:28:09.460Z,13.90
2017-09-05T03:30:36.959Z,14.00
2017-09-05T03:33:04.472Z,14.00
2017-09-05T03:35:31.992Z,13.90
2017-09-05T03:37:59.512Z,13.90
2017-09-05T03:40:27.033Z,13.80
2017-09-05T03:42:54.528Z,13.80
2017-09-05T03:45:22.053Z,13.80
2017-09-05T03:47:49.558Z,13.70
2017-09-05T03:50:17.084Z,13.70
2017-09-05T03:52:44.595Z,13.70
2017-09-05T03:55:12.129Z,13.70
2017-09-05T03:57:39.635Z,13.70
2017-09-05T04:00:07.158Z,13.70
2017-09-05T04:02:34.665Z,13.80
2017-09-05T04:05:03.104Z,13.80
2017-09-05T04:07:30.609Z,13.80
2017-09-05T04:09:58.136Z,13.80
2017-09-05T04:12:25.668Z,13.90
2017-09-05T04:14:53.198Z,13.90
2017-09-05T04:17:20.699Z,13.90
2017-09-05T04:19:48.219Z,13.90
2017-09-05T04:22:15.718Z,13.90
2017-09-05T04:24:43.231Z,13.90
2017-09-05T04:27:10.734Z,13.90
2017-09-05T04:29:38.236Z,13.90
2017-09-05T04:32:05.769Z,13.90
2017-09-05T04:34:33.272Z,13.90
2017-09-05T04:37:01.719Z,13.90
2017-09-05T04:39:29.213Z,13.90
2017-09-05T04:41:56.733Z,14.00
2017-09-05T04:44:24.227Z,14.00
2017-09-05T04:46:51.755Z,13.90
2017-09-05T04:49:19.256Z,13.90
2017-09-05T04:51:46.788Z,14.00
2017-09-05T04:54:14.293Z,14.00
2017-09-05T04:56:41.825Z,14.00
2017-09-05T04:59:09.326Z,14.00
2017-09-05T05:01:36.845Z,14.00
2017-09-05T05:04:04.364Z,14.00
2017-09-05T05:06:31.868Z,14.00
2017-09-05T05:08:59.381Z,14.10
2017-09-05T05:11:27.760Z,14.10
2017-09-05T05:13:55.313Z,14.10
2017-09-05T05:16:22.820Z,14.10
2017-09-05T05:18:50.337Z,14.10
2017-09-05T05:21:17.851Z,14.10
2017-09-05T05:23:45.711Z,14.10
2017-09-05T05:26:15.233Z,14.20
2017-09-05T05:28:42.788Z,14.20
2017-09-05T05:31:10.349Z,14.30
2017-09-05T05:33:37.886Z,14.40
2017-09-05T05:36:05.429Z,14.50
2017-09-05T05:38:32.967Z,14.50
2017-09-05T05:41:00.524Z,14.60
2017-09-05T05:43:28.060Z,14.60
2017-09-05T05:45:55.582Z,14.70
2017-09-05T05:48:23.168Z,14.70
2017-09-05T05:50:50.740Z,14.70
2017-09-05T05:53:18.261Z,14.70
2017-09-05T05:55:45.781Z,14.60
2017-09-05T05:58:13.280Z,14.50
2017-09-05T06:00:40.800Z,14.50
2017-09-05T06:03:08.349Z,14.50
2017-09-05T06:05:35.897Z,14.60
2017-09-05T06:08:03.391Z,14.60
2017-09-05T06:10:30.920Z,14.70
2017-09-05T06:12:58.442Z,14.60
2017-09-05T06:15:25.956Z,14.70
2017-09-05T06:17:53.496Z,14.70
2017-09-05T06:20:21.022Z,14.80
2017-09-05T06:22:48.886Z,14.90
2017-09-05T06:25:16.414Z,15.00
2017-09-05T06:27:43.948Z,15.10
2017-09-05T06:30:11.447Z,15.10
2017-09-05T06:32:38.978Z,15.20
2017-09-05T06:35:06.875Z,15.20
2017-09-05T06:37:34.436Z,15.30
2017-09-05T06:40:02.346Z,15.30
2017-09-05T06:42:29.918Z,15.50
2017-09-05T06:44:57.441Z,15.60
2017-09-05T06:47:24.949Z,15.70
2017-09-05T06:49:53.094Z,15.80
2017-09-05T06:52:20.610Z,16.10
2017-09-05T06:54:48.124Z,16.20
2017-09-05T06:57:15.652Z,16.30
2017-09-05T06:59:43.172Z,16.40
2017-09-05T07:02:10.702Z,16.60
2017-09-05T07:04:38.226Z,16.60
2017-09-05T07:07:05.755Z,16.60
2017-09-05T07:09:33.265Z,16.80
2017-09-05T07:12:00.793Z,16.90
2017-09-05T07:14:28.314Z,16.90
2017-09-05T07:16:55.829Z,16.90
2017-09-05T07:19:23.367Z,17.00
2017-09-05T07:21:50.869Z,17.00
2017-09-05T07:24:18.395Z,17.10
2017-09-05T07:26:45.894Z,17.10
2017-09-05T07:29:13.424Z,17.10
2017-09-05T07:31:40.936Z,17.20
2017-09-05T07:34:08.433Z,17.40
2017-09-05T07:36:35.957Z,17.60
2017-09-05T07:39:03.462Z,17.60
2017-09-05T07:41:30.994Z,17.80
2017-09-05T07:43:58.503Z,18.00
2017-09-05T07:46:26.016Z,18.30
2017-09-05T07:48:53.558Z,18.40
2017-09-05T07:51:21.082Z,18.70
2017-09-05T07:53:48.603Z,18.70
2017-09-05T07:56:16.110Z,18.70
2017-09-05T07:58:43.641Z,18.70
2017-09-05T08:01:11.153Z,19.00
2017-09-05T08:03:39.325Z,19.00
2017-09-05T08:06:06.890Z,18.90
2017-09-05T08:08:34.467Z,18.80
2017-09-05T08:11:02.040Z,18.70
2017-09-05T08:13:29.603Z,18.60
2017-09-05T08:15:57.439Z,18.60
2017-09-05T08:18:24.982Z,18.60
2017-09-05T08:20:52.566Z,18.50
2017-09-05T08:23:20.150Z,18.60
2017-09-05T08:25:51.260Z,18.70
2017-09-05T08:28:18.878Z,18.80
2017-09-05T08:30:46.423Z,18.80
2017-09-05T08:33:17.923Z,19.00
2017-09-05T08:35:45.663Z,19.30
2017-09-05T08:38:13.258Z,19.40
2017-09-05T08:40:40.837Z,19.60
2017-09-05T08:43:08.364Z,19.70
2017-09-05T08:45:35.928Z,19.90
2017-09-05T08:48:03.458Z,20.00
2017-09-05T08:50:31.038Z,20.10
2017-09-05T08:52:58.576Z,20.30
2017-09-05T08:55:26.111Z,20.50
2017-09-05T08:57:53.683Z,20.70
2017-09-05T09:00:21.214Z,20.80
2017-09-05T09:02:48.799Z,20.60
2017-09-05T09:05:16.356Z,20.50
2017-09-05T09:07:43.932Z,20.50
2017-09-05T09:10:11.446Z,20.60
2017-09-05T09:12:38.989Z,20.70
2017-09-05T09:15:06.526Z,21.00
2017-09-05T09:17:34.274Z,21.10
2017-09-05T09:20:01.808Z,21.20
2017-09-05T09:22:29.369Z,21.20
2017-09-05T09:24:57.013Z,21.00
2017-09-05T09:27:24.574Z,20.90
2017-09-05T09:29:52.166Z,20.80
2017-09-05T09:32:23.577Z,20.50
2017-09-05T09:34:51.138Z,20.20
2017-09-05T09:37:18.930Z,20.10
2017-09-05T09:39:46.543Z,20.00
2017-09-05T09:42:14.140Z,19.80
2017-09-05T09:44:41.788Z,19.70
2017-09-05T09:47:09.449Z,19.60
2017-09-05T09:49:37.003Z,19.60
2017-09-05T09:52:04.570Z,19.50
2017-09-05T09:54:32.174Z,19.50
2017-09-05T09:56:59.768Z,19.50
2017-09-05T09:59:27.281Z,19.50
2017-09-05T10:01:54.824Z,19.50
2017-09-05T10:04:22.432Z,19.60
2017-09-05T10:06:49.938Z,19.70
2017-09-05T10:09:17.448Z,19.70
2017-09-05T10:11:44.969Z,19.60
2017-09-05T10:14:12.474Z,19.50
2017-09-05T10:16:40.008Z,19.60
2017-09-05T10:19:07.526Z,19.70
2017-09-05T10:21:35.739Z,20.10
2017-09-05T10:24:03.248Z,20.40
2017-09-05T10:26:30.782Z,20.70
2017-09-05T10:28:58.294Z,21.00
2017-09-05T10:31:29.213Z,21.30
2017-09-05T10:33:56.728Z,21.70
2017-09-05T10:36:24.245Z,21.80
2017-09-05T10:38:51.756Z,22.00
2017-09-05T10:41:19.257Z,22.20
2017-09-05T10:43:46.789Z,22.30
2017-09-05T10:46:14.298Z,22.40
2017-09-05T10:48:41.803Z,22.40
2017-09-05T10:51:09.325Z,22.50
2017-09-05T10:53:36.861Z,22.40
2017-09-05T10:56:04.394Z,22.40
2017-09-05T10:58:31.910Z,22.50
2017-09-05T11:00:59.438Z,22.60
2017-09-05T11:03:26.943Z,22.70
2017-09-05T11:05:54.498Z,22.70
2017-09-05T11:08:21.990Z,22.60
2017-09-05T11:10:49.499Z,22.70
2017-09-05T11:13:17.030Z,22.60
2017-09-05T11:15:44.523Z,22.60
2017-09-05T11:18:12.052Z,22.60
2017-09-05T11:20:39.554Z,22.50
2017-09-05T11:23:07.077Z,22.60
2017-09-05T11:25:34.582Z,22.70
2017-09-05T11:28:02.090Z,22.80
2017-09-05T11:30:29.630Z,22.90
2017-09-05T11:33:00.946Z,23.00
2017-09-05T11:35:28.461Z,23.00
2017-09-05T11:37:55.962Z,23.00
2017-09-05T11:40:24.418Z,23.00
2017-09-05T11:42:51.916Z,23.00
2017-09-05T11:45:20.496Z,23.20
2017-09-05T11:47:48.141Z,23.30
2017-09-05T11:50:15.741Z,23.20
2017-09-05T11:52:43.402Z,23.00
2017-09-05T11:55:11.039Z,22.80
2017-09-05T11:57:38.843Z,22.60
2017-09-05T12:00:06.507Z,22.40
2017-09-05T12:02:34.175Z,22.20
2017-09-05T12:05:02.061Z,22.00
2017-09-05T12:07:29.656Z,22.00
2017-09-05T12:09:57.326Z,22.00
2017-09-05T12:12:24.953Z,21.90
2017-09-05T12:14:53.856Z,21.80
2017-09-05T12:17:21.457Z,21.90
2017-09-05T12:19:57.072Z,21.90
2017-09-05T12:22:24.574Z,22.10
2017-09-05T12:24:52.073Z,22.20
2017-09-05T12:27:19.620Z,22.30
2017-09-05T12:29:47.116Z,22.40
2017-09-05T12:32:14.628Z,22.40
2017-09-05T12:34:42.120Z,22.30
2017-09-05T12:37:10.398Z,22.30
2017-09-05T12:39:37.895Z,22.20
2017-09-05T12:42:05.387Z,22.20
2017-09-05T12:44:32.915Z,22.10
2017-09-05T12:47:00.417Z,22.20
2017-09-05T12:49:27.932Z,22.30
2017-09-05T12:51:55.425Z,22.40
2017-09-05T12:54:22.953Z,22.40
2017-09-05T12:56:50.457Z,22.30
2017-09-05T12:59:17.952Z,22.10
2017-09-05T13:01:45.468Z,22.00
2017-09-05T13:04:12.952Z,21.90
2017-09-05T13:06:40.472Z,21.90
2017-09-05T13:09:07.970Z,22.00
2017-09-05T13:11:35.464Z,22.20
2017-09-05T13:14:02.977Z,22.30
2017-09-05T13:16:30.458Z,22.40
2017-09-05T13:18:57.977Z,22.40
2017-09-05T13:21:25.477Z,22.50
2017-09-05T13:23:52.976Z,22.60
2017-09-05T13:26:20.486Z,22.70
2017-09-05T13:28:47.988Z,22.80
2017-09-05T13:31:15.493Z,22.80
2017-09-05T13:33:43.010Z,23.00
2017-09-05T13:36:10.545Z,23.20
2017-09-05T13:38:38.051Z,23.30
2017-09-05T13:41:05.540Z,23.30
2017-09-05T13:43:33.061Z,23.30
2017-09-05T13:46:00.566Z,23.20
2017-09-05T13:48:28.090Z,23.00
2017-09-05T13:50:55.576Z,22.90
2017-09-05T13:53:23.102Z,22.90
2017-09-05T13:55:51.828Z,22.80
2017-09-05T13:58:19.321Z,22.70
2017-09-05T14:00:46.865Z,22.60
2017-09-05T14:03:14.603Z,22.50
2017-09-05T14:05:42.104Z,22.80
2017-09-05T14:08:09.599Z,23.10
2017-09-05T14:10:37.116Z,23.40
2017-09-05T14:13:04.614Z,23.50
2017-09-05T14:15:32.576Z,23.30
2017-09-05T14:18:00.097Z,23.20
2017-09-05T14:20:27.609Z,23.10
2017-09-05T14:22:55.344Z,22.90
2017-09-05T14:25:22.840Z,22.80
2017-09-05T14:27:50.368Z,22.70
2017-09-05T14:30:17.859Z,22.70
2017-09-05T14:32:45.374Z,22.80
2017-09-05T14:35:12.901Z,22.90
2017-09-05T14:37:40.388Z,23.00
2017-09-05T14:40:07.910Z,23.00
2017-09-05T14:42:35.401Z,22.90
2017-09-05T14:45:02.918Z,22.80
2017-09-05T14:47:30.414Z,22.80
2017-09-05T14:49:57.904Z,22.90
2017-09-05T14:52:25.417Z,23.10
2017-09-05T14:54:52.918Z,23.10
2017-09-05T14:57:20.433Z,23.10
2017-09-05T14:59:47.924Z,23.00
2017-09-05T15:02:15.436Z,23.10
2017-09-05T15:04:43.003Z,23.10
2017-09-05T15:07:10.549Z,23.00
2017-09-05T15:09:38.045Z,22.70
2017-09-05T15:12:05.551Z,22.70
2017-09-05T15:14:33.073Z,22.60
2017-09-05T15:17:00.569Z,22.60
2017-09-05T15:19:28.076Z,22.50
2017-09-05T15:21:55.563Z,22.60
2017-09-05T15:24:23.080Z,22.70
2017-09-05T15:26:50.578Z,22.70
2017-09-05T15:29:18.096Z,22.90
2017-09-05T15:31:45.593Z,22.80
2017-09-05T15:34:13.089Z,22.60
2017-09-05T15:36:40.612Z,22.30
2017-09-05T15:39:08.117Z,22.20
2017-09-05T15:41:35.629Z,22.30
2017-09-05T15:44:03.127Z,22.50
2017-09-05T15:46:30.647Z,22.60
2017-09-05T15:48:58.141Z,22.50
2017-09-05T15:51:25.632Z,22.40
2017-09-05T15:53:53.148Z,22.20
2017-09-05T15:56:20.657Z,22.10
2017-09-05T15:58:48.169Z,22.00
2017-09-05T16:01:15.657Z,22.00
2017-09-05T16:03:43.176Z,21.90
2017-09-05T16:06:10.666Z,21.80
2017-09-05T16:08:38.165Z,21.80
2017-09-05T16:11:05.683Z,21.90
2017-09-05T16:13:33.177Z,21.80
2017-09-05T16:16:00.687Z,21.80
2017-09-05T16:18:28.184Z,21.80
2017-09-05T16:20:55.700Z,21.60
2017-09-05T16:23:23.197Z,21.60
2017-09-05T16:25:50.693Z,21.60
2017-09-05T16:28:18.217Z,21.60
2017-09-05T16:30:45.711Z,21.50
2017-09-05T16:33:13.221Z,21.40
2017-09-05T16:35:40.721Z,21.40
2017-09-05T16:38:08.243Z,21.30
2017-09-05T16:40:35.736Z,21.30
2017-09-05T16:43:03.228Z,21.30
2017-09-05T16:45:31.549Z,21.30
2017-09-05T16:47:59.061Z,21.20
2017-09-05T16:50:26.606Z,21.20
2017-09-05T16:52:54.103Z,21.20
2017-09-05T16:55:21.623Z,21.10
2017-09-05T16:57:49.126Z,21.10
2017-09-05T17:00:16.646Z,21.00
2017-09-05T17:02:44.137Z,21.00
2017-09-05T17:05:11.636Z,21.00
2017-09-05T17:07:39.162Z,21.00
2017-09-05T17:10:06.652Z,21.00
2017-09-05T17:12:34.170Z,21.10
2017-09-05T17:15:01.669Z,21.10
2017-09-05T17:17:29.205Z,21.10
2017-09-05T17:19:56.709Z,21.10
2017-09-05T17:22:24.213Z,21.00
2017-09-05T17:24:51.736Z,21.10
2017-09-05T17:27:19.229Z,21.00
2017-09-05T17:29:46.745Z,20.90
2017-09-05T17:32:14.245Z,20.90
2017-09-05T17:34:42.717Z,20.80
2017-09-05T17:37:10.204Z,20.80
2017-09-05T17:39:37.714Z,20.70
2017-09-05T17:42:05.211Z,20.60
2017-09-05T17:44:32.721Z,20.50
2017-09-05T17:47:00.234Z,20.40
2017-09-05T17:49:27.737Z,20.30
2017-09-05T17:51:55.457Z,20.20
2017-09-05T17:54:22.950Z,20.10
2017-09-05T17:56:50.473Z,19.90
2017-09-05T17:59:17.974Z,19.80
2017-09-05T18:01:45.503Z,19.70
2017-09-05T18:04:13.022Z,19.60
2017-09-05T18:06:40.520Z,19.50
2017-09-05T18:09:08.039Z,19.40
2017-09-05T18:11:35.537Z,19.30
2017-09-05T18:14:03.048Z,19.20
2017-09-05T18:16:30.556Z,19.20
2017-09-05T18:18:58.061Z,19.10
2017-09-05T18:21:25.602Z,19.10
2017-09-05T18:23:53.091Z,19.00
2017-09-05T18:26:20.590Z,19.00
2017-09-05T18:28:48.106Z,19.00
2017-09-05T18:31:15.596Z,19.00
2017-09-05T18:33:43.108Z,18.90
2017-09-05T18:36:10.617Z,18.90
2017-09-05T18:38:38.345Z,18.90
2017-09-05T18:41:05.841Z,18.90
2017-09-05T18:43:33.358Z,18.90
2017-09-05T18:46:00.881Z,18.90
2017-09-05T18:48:28.371Z,18.90
2017-09-05T18:50:55.884Z,18.90
2017-09-05T18:53:23.405Z,18.90
2017-09-05T18:55:50.930Z,18.90
2017-09-05T18:58:18.441Z,18.90
2017-09-05T19:00:45.953Z,18.90
2017-09-05T19:03:13.453Z,18.90
2017-09-05T19:05:40.985Z,18.90
2017-09-05T19:08:08.488Z,18.90
2017-09-05T19:10:35.994Z,18.90
2017-09-05T19:13:03.505Z,18.80
2017-09-05T19:15:31.005Z,18.80
2017-09-05T19:17:58.525Z,18.80
2017-09-05T19:20:26.032Z,18.80
2017-09-05T19:22:53.549Z,18.80
2017-09-05T19:25:21.041Z,18.80
2017-09-05T19:27:48.556Z,18.70
2017-09-05T19:30:16.067Z,18.70
2017-09-05T19:32:43.596Z,18.70
2017-09-05T19:35:11.101Z,18.70
2017-09-05T19:37:38.597Z,18.70
2017-09-05T19:40:06.137Z,18.60
2017-09-05T19:42:33.668Z,18.60
2017-09-05T19:45:01.197Z,18.60
2017-09-05T19:47:28.714Z,18.60
2017-09-05T19:49:56.249Z,18.60
2017-09-05T19:52:23.748Z,18.50
2017-09-05T19:54:51.295Z,18.50
2017-09-05T19:57:18.795Z,18.60
2017-09-05T19:59:46.301Z,18.60
2017-09-05T20:02:13.830Z,18.50
2017-09-05T20:04:41.340Z,18.50
2017-09-05T20:07:08.864Z,18.50
2017-09-05T20:09:36.373Z,18.50
2017-09-05T20:12:03.895Z,18.50
2017-09-05T20:14:31.402Z,18.50
2017-09-05T20:16:58.904Z,18.50
2017-09-05T20:19:26.430Z,18.50
2017-09-05T20:21:53.933Z,18.50
2017-09-05T20:24:21.457Z,18.50
2017-09-05T20:26:48.963Z,18.50
2017-09-05T20:29:22.876Z,18.50
2017-09-05T20:31:50.381Z,18.50
2017-09-05T20:34:17.905Z,18.50
2017-09-05T20:36:45.413Z,18.60
2017-09-05T20:39:12.913Z,18.50
2017-09-05T20:41:40.439Z,18.60
2017-09-05T20:44:07.953Z,18.60
2017-09-05T20:46:35.484Z,18.60
2017-09-05T20:49:02.997Z,18.70
2017-09-05T20:51:30.525Z,18.70
2017-09-05T20:53:58.052Z,18.70
2017-09-05T20:56:25.549Z,18.70
2017-09-05T20:58:53.071Z,18.70
2017-09-05T21:01:20.577Z,18.70
2017-09-05T21:03:48.092Z,18.70
2017-09-05T21:06:15.601Z,18.70
2017-09-05T21:08:43.135Z,18.60
2017-09-05T21:11:10.638Z,18.60
2017-09-05T21:13:38.158Z,18.60
2017-09-05T21:16:05.693Z,18.60
2017-09-05T21:18:33.205Z,18.60
2017-09-05T21:21:00.736Z,18.50
2017-09-05T21:23:28.252Z,18.50
2017-09-05T21:25:55.782Z,18.50
2017-09-05T21:28:23.293Z,18.50
2017-09-05T21:30:50.797Z,18.50
2017-09-05T21:33:18.324Z,18.50
2017-09-05T21:35:45.825Z,18.50
2017-09-05T21:38:13.345Z,18.50
2017-09-05T21:40:40.847Z,18.60
2017-09-05T21:43:08.372Z,18.60
2017-09-05T21:45:35.884Z,18.60
2017-09-05T21:48:03.381Z,18.60
2017-09-05T21:50:30.898Z,18.60
2017-09-05T21:52:58.398Z,18.60
2017-09-05T21:55:25.920Z,18.60
2017-09-05T21:57:53.417Z,18.60
2017-09-05T22:00:20.941Z,18.50
2017-09-05T22:02:48.449Z,18.60
2017-09-05T22:05:15.978Z,18.60
2017-09-05T22:07:43.480Z,18.60
2017-09-05T22:10:10.980Z,18.60
2017-09-05T22:12:38.507Z,18.60
2017-09-05T22:15:11.693Z,18.60
2017-09-05T22:17:39.212Z,18.60
2017-09-05T22:20:12.321Z,18.60
2017-09-05T22:22:45.421Z,18.60
2017-09-05T22:25:18.490Z,18.60
2017-09-05T22:27:51.589Z,18.50
2017-09-05T22:30:19.120Z,18.60
2017-09-05T22:32:46.648Z,18.60
2017-09-05T22:35:14.152Z,18.50
2017-09-05T22:37:41.669Z,18.50
2017-09-05T22:40:09.160Z,18.50
2017-09-05T22:42:36.677Z,18.50
2017-09-05T22:45:04.191Z,18.50
2017-09-05T22:47:31.722Z,18.50
2017-09-05T22:49:59.229Z,18.40
2017-09-05T22:52:26.737Z,18.50
2017-09-05T22:54:54.293Z,18.40
2017-09-05T22:57:21.793Z,18.40
2017-09-05T22:59:49.308Z,18.40
2017-09-05T23:02:16.814Z,18.40
2017-09-05T23:04:44.317Z,18.40
2017-09-05T23:07:11.839Z,18.30
2017-09-05T23:09:39.460Z,18.30
2017-09-05T23:12:07.018Z,18.30
2017-09-05T23:14:34.507Z,18.30
2017-09-05T23:17:02.045Z,18.30
2017-09-05T23:19:29.544Z,18.30
2017-09-05T23:21:57.058Z,18.30
2017-09-05T23:24:24.581Z,18.20
2017-09-05T23:26:52.079Z,18.20
2017-09-05T23:29:19.614Z,18.10
2017-09-05T23:31:47.124Z,18.10
2017-09-05T23:34:14.654Z,18.00
2017-09-05T23:36:42.172Z,18.00
2017-09-05T23:39:09.677Z,18.00
2017-09-05T23:41:37.213Z,17.90
2017-09-05T23:44:04.727Z,17.90
2017-09-05T23:46:32.248Z,17.90
2017-09-05T23:48:59.747Z,17.80
2017-09-05T23:51:27.276Z,17.80
2017-09-05T23:53:54.780Z,17.70
2017-09-05T23:56:22.301Z,17.60
2017-09-05T23:58:49.806Z,17.60
